Airport ID:KVUF
Update Time (UTC):22/01/2022 05:25
Wind Speed (Knots):4
Wind Direction (Magnetic):50
Temperature (°C):-3
Dew Point (°C):-14
Humidity (%):44
Altimeter (inHg):30.36
Density Altitude (Feet):
Visibility:10+
Clouds (Hundreds of feet):SCT042 SCT048
Present Weather:
METAR:METAR KVUF 220520Z AUTO 07003KT 10SM FEW041 SCT047 M02/M14 A3036 RMK A01

The data displayed is for advisory purposes only and is not to be used for flight planning or operations.